createdAt,value
2023-02-12T00:01:40.968Z,99171.29
2023-02-12T00:04:09.337Z,99179.63
2023-02-12T00:06:40.174Z,99178.29
2023-02-12T00:09:08.235Z,99183.02
2023-02-12T00:11:37.722Z,99175.30
2023-02-12T00:14:05.899Z,99186.51
2023-02-12T00:16:37.234Z,99187.95
2023-02-12T00:19:05.180Z,99192.40
2023-02-12T00:21:33.248Z,99201.31
2023-02-12T00:24:02.822Z,99200.66
2023-02-12T00:26:31.187Z,99200.02
2023-02-12T00:28:59.727Z,99200.52
2023-02-12T00:31:30.150Z,99204.51
2023-02-12T00:33:59.843Z,99206.17
2023-02-12T00:36:30.539Z,99211.99
2023-02-12T00:38:59.569Z,99208.56
2023-02-12T00:41:28.401Z,99218.73
2023-02-12T00:43:56.814Z,99221.14
2023-02-12T00:46:24.979Z,99222.09
2023-02-12T00:48:53.248Z,99226.09
2023-02-12T00:51:21.892Z,99225.08
2023-02-12T00:53:49.884Z,99230.30
2023-02-12T00:56:18.128Z,99225.38
2023-02-12T00:58:48.919Z,99220.42
2023-02-12T01:01:17.567Z,99233.36
2023-02-12T01:03:46.346Z,99239.66
2023-02-12T01:06:14.362Z,99246.32
2023-02-12T01:08:43.036Z,99247.93
2023-02-12T01:11:13.902Z,99253.71
2023-02-12T01:13:44.538Z,99251.98
2023-02-12T01:16:24.054Z,99262.91
2023-02-12T01:18:55.804Z,99260.52
2023-02-12T01:21:27.677Z,99258.70
2023-02-12T01:23:56.398Z,99264.30
2023-02-12T01:26:26.563Z,99264.52
2023-02-12T01:28:57.584Z,99267.79
2023-02-12T01:31:28.861Z,99276.55
2023-02-12T01:34:00.240Z,99278.21
2023-02-12T01:36:29.799Z,99271.75
2023-02-12T01:38:59.301Z,99280.05
2023-02-12T01:41:30.654Z,99284.14
2023-02-12T01:44:21.047Z,99290.46
2023-02-12T01:46:55.800Z,99296.09
2023-02-12T01:49:29.520Z,99305.61
2023-02-12T01:52:05.329Z,99311.60
2023-02-12T01:54:36.548Z,99311.29
2023-02-12T01:57:06.738Z,99322.64
2023-02-12T01:59:38.493Z,99319.24
2023-02-12T02:02:06.529Z,99325.05
2023-02-12T02:04:44.804Z,99332.00
2023-02-12T02:07:13.043Z,99343.15
2023-02-12T02:09:41.950Z,99353.66
2023-02-12T02:12:29.086Z,99354.70
2023-02-12T02:15:01.101Z,99356.40
2023-02-12T02:17:47.224Z,99358.05
2023-02-12T02:20:27.938Z,99365.79
2023-02-12T02:22:56.040Z,99370.10
2023-02-12T02:25:40.874Z,99375.32
2023-02-12T02:28:46.060Z,99386.27
2023-02-12T02:31:26.241Z,99393.31
2023-02-12T02:34:27.422Z,99405.05
2023-02-12T02:37:13.984Z,99408.97
2023-02-12T02:39:46.149Z,99415.23
2023-02-12T02:42:31.737Z,99422.23
2023-02-12T02:45:38.781Z,99425.66
2023-02-12T02:48:16.110Z,99437.00
2023-02-12T02:50:49.602Z,99441.76
2023-02-12T02:53:29.836Z,99443.69
2023-02-12T02:56:02.054Z,99444.24
2023-02-12T02:58:39.327Z,99441.94
2023-02-12T03:01:28.274Z,99458.36
2023-02-12T03:04:07.164Z,99464.88
2023-02-12T03:06:40.448Z,99473.16
2023-02-12T03:09:36.899Z,99490.21
2023-02-12T03:12:12.713Z,99496.70
2023-02-12T03:14:50.917Z,99498.98
2023-02-12T03:17:24.751Z,99509.41
2023-02-12T03:19:58.372Z,99522.18
2023-02-12T03:22:36.466Z,99519.60
2023-02-12T03:25:05.692Z,99527.98
2023-02-12T03:27:39.040Z,99545.72
2023-02-12T03:30:08.531Z,99556.17
2023-02-12T03:32:39.573Z,99566.01
2023-02-12T03:35:23.694Z,99572.88
2023-02-12T03:38:09.520Z,99575.91
2023-02-12T03:40:44.549Z,99587.80
2023-02-12T03:43:44.311Z,99595.73
2023-02-12T03:46:21.055Z,99603.72
2023-02-12T03:49:04.760Z,99614.03
2023-02-12T03:51:45.625Z,99626.25
2023-02-12T03:54:18.576Z,99619.30
2023-02-12T03:56:52.995Z,99633.77
2023-02-12T03:59:25.613Z,99632.21
2023-02-12T04:01:56.142Z,99643.64
2023-02-12T04:04:28.070Z,99651.65
2023-02-12T04:06:57.203Z,99657.83
2023-02-12T04:09:27.739Z,99667.08
2023-02-12T04:12:09.735Z,99682.25
2023-02-12T04:15:14.408Z,99680.41
2023-02-12T04:18:10.051Z,99690.80
2023-02-12T04:20:55.119Z,99699.86
2023-02-12T04:23:39.118Z,99705.16
2023-02-12T04:26:52.621Z,99706.64
2023-02-12T04:29:56.548Z,99712.73
2023-02-12T04:32:48.909Z,99714.79
2023-02-12T04:35:35.164Z,99715.14
2023-02-12T04:38:40.726Z,99726.66
2023-02-12T04:41:09.677Z,99724.45
2023-02-12T04:43:38.300Z,99736.13
2023-02-12T04:46:09.108Z,99733.10
2023-02-12T04:48:53.525Z,99734.73
2023-02-12T04:51:21.461Z,99734.35
2023-02-12T04:53:49.745Z,99748.42
2023-02-12T04:56:18.129Z,99751.58
2023-02-12T04:58:46.045Z,99754.04
2023-02-12T05:01:14.237Z,99771.11
2023-02-12T05:03:43.856Z,99775.27
2023-02-12T05:06:12.181Z,99770.81
2023-02-12T05:08:42.970Z,99781.17
2023-02-12T05:11:12.151Z,99778.68
2023-02-12T05:13:41.800Z,99795.59
2023-02-12T05:16:10.084Z,99800.63
2023-02-12T05:18:38.097Z,99808.72
2023-02-12T05:21:06.135Z,99817.19
2023-02-12T05:23:36.248Z,99819.70
2023-02-12T05:26:08.056Z,99825.70
2023-02-12T05:28:36.735Z,99834.79
2023-02-12T05:31:06.968Z,99842.53
2023-02-12T05:33:35.457Z,99839.48
2023-02-12T05:36:05.941Z,99852.95
2023-02-12T05:38:35.083Z,99869.00
2023-02-12T05:41:08.931Z,99867.89
2023-02-12T05:43:36.930Z,99860.23
2023-02-12T05:46:06.599Z,99874.01
2023-02-12T05:48:35.876Z,99867.16
2023-02-12T05:51:09.384Z,99879.00
2023-02-12T05:53:39.133Z,99875.92
2023-02-12T05:56:20.110Z,99888.48
2023-02-12T05:58:53.759Z,99878.20
2023-02-12T06:01:25.132Z,99892.82
2023-02-12T06:03:53.075Z,99904.74
2023-02-12T06:06:21.710Z,99903.70
2023-02-12T06:08:49.945Z,99917.98
2023-02-12T06:11:18.406Z,99918.92
2023-02-12T06:13:47.186Z,99925.08
2023-02-12T06:16:28.645Z,99929.70
2023-02-12T06:18:57.181Z,99931.73
2023-02-12T06:21:26.883Z,99940.83
2023-02-12T06:23:55.321Z,99940.39
2023-02-12T06:26:27.151Z,99948.04
2023-02-12T06:28:55.518Z,99953.80
2023-02-12T06:31:25.617Z,99951.98
2023-02-12T06:33:55.482Z,99956.52
2023-02-12T06:36:24.976Z,99959.37
2023-02-12T06:38:53.040Z,99955.98
2023-02-12T06:41:22.566Z,99961.17
2023-02-12T06:43:51.828Z,99959.36
2023-02-12T06:46:20.078Z,99965.70
2023-02-12T06:48:48.427Z,99965.77
2023-02-12T06:51:18.709Z,99968.73
2023-02-12T06:53:46.773Z,99978.23
2023-02-12T06:56:14.988Z,99982.60
2023-02-12T06:58:53.803Z,99984.30
2023-02-12T07:01:27.030Z,99983.71
2023-02-12T07:03:58.210Z,99983.58
2023-02-12T07:06:28.435Z,99992.75
2023-02-12T07:08:58.349Z,99991.70
2023-02-12T07:11:34.915Z,99990.20
2023-02-12T07:14:06.519Z,99995.73
2023-02-12T07:16:34.893Z,100004.29
2023-02-12T07:19:06.076Z,99993.89
2023-02-12T07:21:35.243Z,100013.55
2023-02-12T07:24:03.305Z,100013.41
2023-02-12T07:26:33.038Z,100018.58
2023-02-12T07:29:01.783Z,100014.77
2023-02-12T07:31:30.589Z,100017.21
2023-02-12T07:34:02.734Z,100019.42
2023-02-12T07:36:32.874Z,100024.05
2023-02-12T07:39:01.693Z,100020.25
2023-02-12T07:41:33.165Z,100009.91
2023-02-12T07:44:07.335Z,100012.52
2023-02-12T07:46:42.908Z,100010.39
2023-02-12T07:49:17.084Z,100019.48
2023-02-12T07:51:45.803Z,100014.50
2023-02-12T07:54:18.603Z,100026.30
2023-02-12T07:56:47.217Z,100017.96
2023-02-12T07:59:18.760Z,100033.05
2023-02-12T08:01:49.082Z,100040.42
2023-02-12T08:04:19.584Z,100031.80
2023-02-12T08:06:50.403Z,100025.08
2023-02-12T08:09:20.689Z,100036.80
2023-02-12T08:11:48.967Z,100034.47
2023-02-12T08:14:19.802Z,100052.83
2023-02-12T08:16:49.557Z,100050.98
2023-02-12T08:19:21.875Z,100054.44
2023-02-12T08:21:55.029Z,100052.02
2023-02-12T08:24:24.544Z,100056.55
2023-02-12T08:26:52.759Z,100058.98
2023-02-12T08:29:24.318Z,100064.19
2023-02-12T08:32:01.616Z,100063.30
2023-02-12T08:34:33.711Z,100061.30
2023-02-12T08:37:06.595Z,100071.80
2023-02-12T08:39:34.967Z,100071.80
2023-02-12T08:42:04.525Z,100067.39
2023-02-12T08:44:33.132Z,100070.71
2023-02-12T08:47:03.168Z,100072.05
2023-02-12T08:49:31.616Z,100078.13
2023-02-12T08:52:01.769Z,100079.61
2023-02-12T08:54:31.589Z,100078.55
2023-02-12T08:57:01.714Z,100076.17
2023-02-12T08:59:31.002Z,100082.30
2023-02-12T09:02:00.798Z,100096.50
2023-02-12T09:04:30.237Z,100107.30
2023-02-12T09:06:59.740Z,100101.27
2023-02-12T09:09:28.057Z,100104.86
2023-02-12T09:11:56.081Z,100108.82
2023-02-12T09:14:25.333Z,100098.92
2023-02-12T09:16:54.672Z,100103.84
2023-02-12T09:19:23.781Z,100104.30
2023-02-12T09:21:55.824Z,100116.14
2023-02-12T09:24:25.944Z,100110.21
2023-02-12T09:26:53.942Z,100106.03
2023-02-12T09:29:23.957Z,100114.44
2023-02-12T09:31:52.092Z,100118.63
2023-02-12T09:34:24.737Z,100115.62
2023-02-12T09:36:52.712Z,100120.11
2023-02-12T09:39:21.160Z,100121.39
2023-02-12T09:42:01.425Z,100127.66
2023-02-12T09:44:35.269Z,100131.88
2023-02-12T09:47:17.343Z,100133.58
2023-02-12T09:50:13.657Z,100131.00
2023-02-12T09:52:42.599Z,100129.19
2023-02-12T09:55:15.657Z,100119.55
2023-02-12T09:57:44.820Z,100114.58
2023-02-12T10:00:24.225Z,100121.01
2023-02-12T10:02:54.102Z,100110.98
2023-02-12T10:05:29.046Z,100106.15
2023-02-12T10:08:15.545Z,100105.56
2023-02-12T10:11:04.575Z,100105.34
2023-02-12T10:13:47.684Z,100119.75
2023-02-12T10:16:47.617Z,100115.84
2023-02-12T10:19:21.567Z,100114.00
2023-02-12T10:22:13.210Z,100112.34
2023-02-12T10:24:52.020Z,100111.44
2023-02-12T10:27:33.048Z,100119.84
2023-02-12T10:30:03.888Z,100111.85
2023-02-12T10:32:36.785Z,100109.80
2023-02-12T10:35:14.145Z,100118.71
2023-02-12T10:37:46.581Z,100113.20
2023-02-12T10:40:26.354Z,100127.08
2023-02-12T10:42:55.035Z,100131.43
2023-02-12T10:45:29.097Z,100132.53
2023-02-12T10:48:08.894Z,100131.16
2023-02-12T10:50:59.580Z,100136.41
2023-02-12T10:53:37.249Z,100132.08
2023-02-12T10:56:09.478Z,100132.23
2023-02-12T10:58:42.492Z,100134.23
2023-02-12T11:01:25.986Z,100137.00
2023-02-12T11:03:59.627Z,100139.52
2023-02-12T11:06:32.238Z,100153.39
2023-02-12T11:09:00.778Z,100157.13
2023-02-12T11:11:38.811Z,100160.81
2023-02-12T11:14:18.006Z,100168.27
2023-02-12T11:17:00.296Z,100169.44
2023-02-12T11:19:31.515Z,100167.79
2023-02-12T11:22:18.835Z,100165.12
2023-02-12T11:25:00.602Z,100164.43
2023-02-12T11:27:30.503Z,100175.00
2023-02-12T11:30:10.778Z,100168.30
2023-02-12T11:32:39.157Z,100161.70
2023-02-12T11:35:12.862Z,100160.17
2023-02-12T11:37:43.302Z,100150.23
2023-02-12T11:40:29.629Z,100157.71
2023-02-12T11:43:01.604Z,100154.84
2023-02-12T11:45:34.375Z,100151.83
2023-02-12T11:48:02.852Z,100159.68
2023-02-12T11:50:33.355Z,100162.95
2023-02-12T11:53:09.516Z,100160.74
2023-02-12T11:55:40.913Z,100164.74
2023-02-12T11:58:21.065Z,100166.88
2023-02-12T12:01:02.189Z,100168.41
2023-02-12T12:03:48.945Z,100161.98
2023-02-12T12:06:19.646Z,100159.67
2023-02-12T12:09:01.746Z,100160.45
2023-02-12T12:11:59.326Z,100150.00
2023-02-12T12:14:54.920Z,100152.02
2023-02-12T12:17:49.369Z,100151.84
2023-02-12T12:20:23.614Z,100151.77
2023-02-12T12:23:03.373Z,100160.39
2023-02-12T12:25:42.050Z,100145.38
2023-02-12T12:28:34.186Z,100153.66
2023-02-12T12:31:12.220Z,100159.05
2023-02-12T12:33:40.875Z,100164.30
2023-02-12T12:36:20.295Z,100161.36
2023-02-12T12:39:11.674Z,100152.89
2023-02-12T12:41:51.949Z,100156.66
2023-02-12T12:44:57.535Z,100161.75
2023-02-12T12:47:31.704Z,100159.71
2023-02-12T12:50:12.322Z,100160.06
2023-02-12T12:52:58.638Z,100166.52
2023-02-12T12:55:44.405Z,100171.38
2023-02-12T12:58:31.084Z,100177.95
2023-02-12T13:01:08.128Z,100183.80
2023-02-12T13:04:02.444Z,100182.99
2023-02-12T13:06:30.882Z,100188.67
2023-02-12T13:09:20.832Z,100192.73
2023-02-12T13:12:00.403Z,100197.70
2023-02-12T13:14:47.576Z,100201.38
2023-02-12T13:17:39.508Z,100200.32
2023-02-12T13:20:22.264Z,100195.17
2023-02-12T13:22:59.243Z,100186.41
2023-02-12T13:26:04.428Z,100200.80
2023-02-12T13:28:41.033Z,100196.67
2023-02-12T13:31:31.859Z,100200.59
2023-02-12T13:34:11.730Z,100217.70
2023-02-12T13:36:41.957Z,100213.55
2023-02-12T13:39:27.446Z,100226.38
2023-02-12T13:42:29.795Z,100227.36
2023-02-12T13:45:33.136Z,100231.89
2023-02-12T13:48:40.035Z,100239.29
2023-02-12T13:51:24.204Z,100240.94
2023-02-12T13:54:18.545Z,100240.69
2023-02-12T13:56:49.175Z,100242.73
2023-02-12T13:59:32.876Z,100249.09
2023-02-12T14:02:24.040Z,100256.06
2023-02-12T14:05:02.434Z,100263.14
2023-02-12T14:08:07.098Z,100267.45
2023-02-12T14:10:41.010Z,100271.59
2023-02-12T14:13:19.830Z,100266.77
2023-02-12T14:15:57.923Z,100267.13
2023-02-12T14:18:37.183Z,100281.36
2023-02-12T14:21:14.082Z,100270.64
2023-02-12T14:23:46.668Z,100276.33
2023-02-12T14:26:22.513Z,100283.58
2023-02-12T14:29:00.555Z,100284.70
2023-02-12T14:31:46.877Z,100287.67
2023-02-12T14:34:16.541Z,100297.02
2023-02-12T14:36:46.508Z,100283.01
2023-02-12T14:39:20.528Z,100291.95
2023-02-12T14:41:49.478Z,100288.90
2023-02-12T14:44:17.290Z,100296.11
2023-02-12T14:46:55.880Z,100296.45
2023-02-12T14:49:48.858Z,100314.50
2023-02-12T14:52:30.936Z,100323.67
2023-02-12T14:55:02.661Z,100329.27
2023-02-12T14:57:33.409Z,100331.35
2023-02-12T15:00:29.876Z,100346.11
2023-02-12T15:03:07.330Z,100347.32
2023-02-12T15:05:47.746Z,100361.92
2023-02-12T15:08:18.708Z,100363.26
2023-02-12T15:10:50.446Z,100378.84
2023-02-12T15:13:23.347Z,100386.80
2023-02-12T15:15:51.344Z,100393.02
2023-02-12T15:18:30.804Z,100398.39
2023-02-12T15:21:16.985Z,100399.57
2023-02-12T15:23:46.007Z,100403.88
2023-02-12T15:26:17.480Z,100402.83
2023-02-12T15:28:51.861Z,100410.38
2023-02-12T15:31:25.706Z,100404.77
2023-02-12T15:33:56.434Z,100413.98
2023-02-12T15:36:27.024Z,100418.73
2023-02-12T15:39:01.858Z,100422.59
2023-02-12T15:41:37.077Z,100434.67
2023-02-12T15:44:23.346Z,100437.08
2023-02-12T15:47:04.192Z,100440.34
2023-02-12T15:49:36.162Z,100443.23
2023-02-12T15:52:24.792Z,100439.20
2023-02-12T15:54:53.013Z,100440.83
2023-02-12T15:57:24.010Z,100443.91
2023-02-12T15:59:55.270Z,100454.44
2023-02-12T16:02:30.081Z,100450.81
2023-02-12T16:04:59.384Z,100455.14
2023-02-12T16:07:30.991Z,100451.05
2023-02-12T16:10:02.358Z,100458.52
2023-02-12T16:12:34.470Z,100468.09
2023-02-12T16:15:03.478Z,100469.16
2023-02-12T16:17:36.135Z,100468.17
2023-02-12T16:20:20.824Z,100475.86
2023-02-12T16:22:51.762Z,100480.23
2023-02-12T16:25:33.114Z,100483.48
2023-02-12T16:28:04.378Z,100479.49
2023-02-12T16:30:39.108Z,100483.02
2023-02-12T16:33:32.971Z,100478.09
2023-02-12T16:36:02.961Z,100482.12
2023-02-12T16:38:43.629Z,100484.31
2023-02-12T16:41:27.014Z,100486.80
2023-02-12T16:44:01.138Z,100493.38
2023-02-12T16:46:46.061Z,100498.35
2023-02-12T16:49:17.354Z,100498.52
2023-02-12T16:51:48.155Z,100495.81
2023-02-12T16:54:32.000Z,100497.65
2023-02-12T16:57:01.150Z,100491.94
2023-02-12T16:59:30.733Z,100496.48
2023-02-12T17:01:59.817Z,100493.75
2023-02-12T17:04:28.645Z,100497.77
2023-02-12T17:06:57.976Z,100490.00
2023-02-12T17:09:26.790Z,100496.64
2023-02-12T17:11:56.817Z,100498.33
2023-02-12T17:14:24.823Z,100504.19
2023-02-12T17:16:52.736Z,100508.81
2023-02-12T17:19:22.961Z,100515.39
2023-02-12T17:21:52.125Z,100517.30
2023-02-12T17:24:24.624Z,100522.34
2023-02-12T17:26:53.318Z,100525.39
2023-02-12T17:29:24.237Z,100528.95
2023-02-12T17:31:58.521Z,100534.91
2023-02-12T17:34:27.521Z,100533.63
2023-02-12T17:36:56.729Z,100533.22
2023-02-12T17:39:24.705Z,100533.12
2023-02-12T17:41:53.045Z,100534.91
2023-02-12T17:44:21.058Z,100533.70
2023-02-12T17:46:49.394Z,100534.33
2023-02-12T17:49:17.510Z,100533.22
2023-02-12T17:51:45.734Z,100536.56
2023-02-12T17:54:15.931Z,100533.90
2023-02-12T17:56:44.335Z,100532.07
2023-02-12T17:59:12.337Z,100528.60
2023-02-12T18:01:41.114Z,100533.83
2023-02-12T18:04:09.349Z,100534.58
2023-02-12T18:06:37.433Z,100529.78
2023-02-12T18:09:05.815Z,100532.50
2023-02-12T18:11:34.727Z,100543.59
2023-02-12T18:14:03.242Z,100545.98
2023-02-12T18:16:36.437Z,100554.25
2023-02-12T18:19:05.678Z,100559.14
2023-02-12T18:21:35.033Z,100563.77
2023-02-12T18:24:03.121Z,100567.72
2023-02-12T18:26:31.151Z,100571.48
2023-02-12T18:29:00.103Z,100577.35
2023-02-12T18:31:28.800Z,100584.55
2023-02-12T18:33:56.731Z,100587.39
2023-02-12T18:36:25.040Z,100592.29
2023-02-12T18:38:53.591Z,100587.47
2023-02-12T18:41:25.730Z,100593.98
2023-02-12T18:43:54.979Z,100592.52
2023-02-12T18:46:28.179Z,100600.75
2023-02-12T18:48:56.949Z,100600.77
2023-02-12T18:51:27.867Z,100600.93
2023-02-12T18:54:01.427Z,100593.90
2023-02-12T18:56:31.070Z,100591.14
2023-02-12T18:59:01.321Z,100593.41
2023-02-12T19:01:29.682Z,100590.80
2023-02-12T19:04:00.292Z,100586.39
2023-02-12T19:06:30.370Z,100582.73
2023-02-12T19:09:03.437Z,100583.69
2023-02-12T19:11:32.211Z,100583.59
2023-02-12T19:14:00.442Z,100583.61
2023-02-12T19:16:30.535Z,100579.94
2023-02-12T19:19:00.070Z,100581.20
2023-02-12T19:21:29.004Z,100584.98
2023-02-12T19:24:00.266Z,100587.15
2023-02-12T19:26:30.047Z,100589.61
2023-02-12T19:29:00.378Z,100585.40
2023-02-12T19:31:32.064Z,100581.25
2023-02-12T19:34:05.065Z,100578.15
2023-02-12T19:36:36.165Z,100576.55
2023-02-12T19:39:05.988Z,100573.02
2023-02-12T19:41:40.779Z,100575.17
2023-02-12T19:44:19.071Z,100564.81
2023-02-12T19:46:49.074Z,100563.30
2023-02-12T19:49:25.686Z,100559.98
2023-02-12T19:51:54.040Z,100556.44
2023-02-12T19:54:23.468Z,100561.70
2023-02-12T19:56:52.858Z,100565.18
2023-02-12T19:59:22.636Z,100559.40
2023-02-12T20:01:51.172Z,100550.94
2023-02-12T20:04:22.013Z,100552.20
2023-02-12T20:06:53.097Z,100553.60
2023-02-12T20:09:22.436Z,100547.36
2023-02-12T20:11:51.169Z,100547.70
2023-02-12T20:14:20.927Z,100553.23
2023-02-12T20:16:50.986Z,100551.36
2023-02-12T20:19:26.997Z,100553.23
2023-02-12T20:21:57.532Z,100554.77
2023-02-12T20:24:28.498Z,100556.23
2023-02-12T20:26:58.590Z,100551.91
2023-02-12T20:29:26.877Z,100550.52
2023-02-12T20:31:55.278Z,100554.05
2023-02-12T20:34:23.703Z,100556.33
2023-02-12T20:36:53.919Z,100557.00
2023-02-12T20:39:22.701Z,100560.23
2023-02-12T20:41:52.170Z,100561.32
2023-02-12T20:44:21.779Z,100561.68
2023-02-12T20:46:56.384Z,100561.63
2023-02-12T20:49:26.582Z,100559.44
2023-02-12T20:51:54.751Z,100562.67
2023-02-12T20:54:24.921Z,100562.82
2023-02-12T20:56:53.540Z,100564.24
2023-02-12T20:59:21.505Z,100559.92
2023-02-12T21:01:49.878Z,100566.59
2023-02-12T21:04:19.512Z,100567.55
2023-02-12T21:06:48.620Z,100570.46
2023-02-12T21:09:18.732Z,100571.39
2023-02-12T21:11:49.674Z,100575.23
2023-02-12T21:14:22.529Z,100579.08
2023-02-12T21:16:53.303Z,100578.65
2023-02-12T21:19:21.496Z,100579.23
2023-02-12T21:21:50.105Z,100575.30
2023-02-12T21:24:21.726Z,100576.84
2023-02-12T21:26:50.411Z,100573.80
2023-02-12T21:29:19.565Z,100577.92
2023-02-12T21:31:50.275Z,100588.35
2023-02-12T21:34:21.961Z,100591.57
2023-02-12T21:36:53.443Z,100590.99
2023-02-12T21:39:25.126Z,100587.45
2023-02-12T21:42:00.227Z,100591.59
2023-02-12T21:44:29.925Z,100592.60
2023-02-12T21:46:59.279Z,100595.27
2023-02-12T21:49:28.266Z,100593.80
2023-02-12T21:52:06.500Z,100595.59
2023-02-12T21:54:35.248Z,100595.00
2023-02-12T21:57:03.386Z,100596.23
2023-02-12T21:59:32.447Z,100598.58
2023-02-12T22:02:01.840Z,100591.91
2023-02-12T22:04:31.790Z,100593.98
2023-02-12T22:07:03.302Z,100589.89
2023-02-12T22:09:35.205Z,100591.20
2023-02-12T22:12:03.200Z,100588.69
2023-02-12T22:14:31.305Z,100584.07
2023-02-12T22:16:59.928Z,100582.38
2023-02-12T22:19:28.507Z,100581.33
2023-02-12T22:21:56.457Z,100579.17
2023-02-12T22:24:24.558Z,100582.69
2023-02-12T22:26:55.904Z,100587.84
2023-02-12T22:29:24.033Z,100589.36
2023-02-12T22:31:52.401Z,100596.77
2023-02-12T22:34:20.658Z,100597.14
2023-02-12T22:36:48.712Z,100593.92
2023-02-12T22:39:17.710Z,100595.00
2023-02-12T22:41:46.450Z,100593.58
2023-02-12T22:44:15.526Z,100599.59
2023-02-12T22:46:44.375Z,100596.38
2023-02-12T22:49:12.512Z,100598.54
2023-02-12T22:51:40.778Z,100600.69
2023-02-12T22:54:15.653Z,100604.67
2023-02-12T22:56:44.529Z,100599.17
2023-02-12T22:59:13.092Z,100607.21
2023-02-12T23:01:42.083Z,100603.80
2023-02-12T23:04:18.427Z,100605.81
2023-02-12T23:06:47.213Z,100602.23
2023-02-12T23:09:18.944Z,100599.15
2023-02-12T23:11:48.295Z,100597.80
2023-02-12T23:14:18.245Z,100592.80
2023-02-12T23:16:47.687Z,100583.90
2023-02-12T23:19:15.854Z,100580.48
2023-02-12T23:21:44.927Z,100573.23
2023-02-12T23:24:14.897Z,100571.34
2023-02-12T23:26:43.109Z,100567.04
2023-02-12T23:29:12.037Z,100566.21
2023-02-12T23:31:41.336Z,100563.61
2023-02-12T23:34:09.738Z,100566.54
2023-02-12T23:36:37.643Z,100561.98
2023-02-12T23:39:06.212Z,100561.89
2023-02-12T23:41:34.766Z,100563.73
2023-02-12T23:44:03.706Z,100563.95
2023-02-12T23:46:32.304Z,100557.56
2023-02-12T23:49:01.285Z,100557.81
2023-02-12T23:51:30.627Z,100557.48
2023-02-12T23:53:58.938Z,100558.05
2023-02-12T23:56:27.729Z,100555.73
2023-02-12T23:58:57.392Z,100559.40
